Terminal Aerodrome Forecast
Issued by NWS

Home | Current Version | Previous Version | Text Only | Print | Product List | Glossary On
Versions: 1 2 3 4 5 6 7 8 9 10 11 12 13 14 15 16 17 18
193
FTUS44 KLZK 020833 AAA
TAFADF
TAF AMD
KADF 020833Z 0209/0306 02008KT P6SM -TSRA BKN025 OVC045CB
     FM021200 01004KT P6SM -SHRA BKN025
     FM021800 33005KT P6SM BKN050
     FM030000 29004KT P6SM SCT050
      AMD NOT SKED=

USA.gov is the U.S. government's official web portal to all federal, state and local government web resources and services.